createdAt,value
2023-04-15T00:00:58.585Z,54.40
2023-04-15T00:03:25.636Z,55.00
2023-04-15T00:05:52.753Z,56.40
2023-04-15T00:08:20.517Z,56.00
2023-04-15T00:10:47.912Z,55.90
2023-04-15T00:13:15.498Z,55.90
2023-04-15T00:15:43.318Z,55.80
2023-04-15T00:18:10.246Z,56.40
2023-04-15T00:20:37.290Z,56.80
2023-04-15T00:23:04.416Z,56.50
2023-04-15T00:25:31.297Z,56.60
2023-04-15T00:27:58.277Z,56.70
2023-04-15T00:30:25.780Z,56.80
2023-04-15T00:32:52.788Z,57.50
2023-04-15T00:35:19.519Z,57.60
2023-04-15T00:37:46.489Z,57.50
2023-04-15T00:40:13.948Z,57.40
2023-04-15T00:42:41.093Z,56.70
2023-04-15T00:45:08.830Z,57.30
2023-04-15T00:47:37.291Z,56.80
2023-04-15T00:50:05.113Z,57.40
2023-04-15T00:52:32.124Z,56.80
2023-04-15T00:54:59.530Z,56.70
2023-04-15T00:57:27.118Z,57.30
2023-04-15T00:59:54.441Z,56.90
2023-04-15T01:02:21.800Z,57.00
2023-04-15T01:04:48.756Z,56.30
2023-04-15T01:07:15.519Z,57.00
2023-04-15T01:09:42.283Z,56.40
2023-04-15T01:12:12.027Z,56.70
2023-04-15T01:14:38.780Z,56.70
2023-04-15T01:17:05.534Z,56.50
2023-04-15T01:19:32.311Z,56.30
2023-04-15T01:21:59.082Z,56.20
2023-04-15T01:24:28.044Z,56.50
2023-04-15T01:26:54.913Z,56.10
2023-04-15T01:29:22.431Z,56.40
2023-04-15T01:31:50.934Z,56.00
2023-04-15T01:34:17.794Z,56.20
2023-04-15T01:36:44.611Z,55.90
2023-04-15T01:39:11.329Z,55.70
2023-04-15T01:41:38.030Z,55.80
2023-04-15T01:44:04.921Z,55.40
2023-04-15T01:46:31.633Z,55.20
2023-04-15T01:48:58.673Z,55.30
2023-04-15T01:51:25.661Z,54.30
2023-04-15T01:53:52.487Z,54.70
2023-04-15T01:56:19.247Z,54.50
2023-04-15T01:58:46.471Z,54.60
2023-04-15T02:01:13.171Z,53.80
2023-04-15T02:03:40.005Z,53.90
2023-04-15T02:06:06.755Z,53.90
2023-04-15T02:08:33.588Z,54.10
2023-04-15T02:11:01.246Z,53.40
2023-04-15T02:13:27.975Z,53.40
2023-04-15T02:15:55.653Z,52.80
2023-04-15T02:18:22.379Z,52.90
2023-04-15T02:20:49.467Z,52.80
2023-04-15T02:23:16.839Z,52.50
2023-04-15T02:25:43.594Z,52.60
2023-04-15T02:28:20.846Z,52.40
2023-04-15T02:30:48.508Z,52.70
2023-04-15T03:39:56.137Z,52.30
2023-04-15T03:42:22.981Z,52.30
2023-04-15T03:44:49.747Z,52.50
2023-04-15T03:47:16.477Z,52.20
2023-04-15T03:49:43.227Z,52.20
2023-04-15T03:52:10.006Z,52.40
2023-04-15T03:54:36.791Z,52.10
2023-04-15T03:57:03.483Z,52.20
2023-04-15T03:59:30.173Z,52.00
2023-04-15T04:01:57.103Z,52.20
2023-04-15T04:04:24.181Z,51.90
2023-04-15T04:06:51.090Z,52.10
2023-04-15T04:09:17.833Z,51.50
2023-04-15T04:11:45.641Z,52.20
2023-04-15T04:14:12.348Z,51.80
2023-04-15T04:16:39.182Z,51.90
2023-04-15T04:19:06.437Z,51.40
2023-04-15T04:21:34.224Z,51.70
2023-04-15T04:24:01.097Z,51.50
2023-04-15T04:26:27.860Z,51.50
2023-04-15T04:28:54.554Z,52.00
2023-04-15T04:31:21.276Z,51.50
2023-04-15T04:33:47.954Z,51.40
2023-04-15T04:36:14.678Z,51.50
2023-04-15T04:38:41.424Z,51.30
2023-04-15T04:41:08.125Z,51.70
2023-04-15T04:43:34.892Z,51.80
2023-04-15T04:46:01.854Z,51.40
2023-04-15T04:48:28.626Z,51.50
2023-04-15T04:50:55.731Z,51.70
2023-04-15T04:53:22.477Z,51.10
2023-04-15T04:55:49.177Z,51.10
2023-04-15T04:58:15.896Z,51.40
2023-04-15T05:00:42.871Z,51.60
2023-04-15T05:03:09.836Z,51.10
2023-04-15T05:05:39.467Z,50.70
2023-04-15T05:08:06.193Z,50.80
2023-04-15T05:10:33.062Z,50.20
2023-04-15T05:12:59.783Z,50.40
2023-04-15T05:15:26.529Z,50.50
2023-04-15T05:17:53.301Z,49.70
2023-04-15T05:20:20.118Z,49.40
2023-04-15T05:22:46.831Z,49.40
2023-04-15T05:25:13.751Z,48.80
2023-04-15T05:27:40.561Z,48.90
2023-04-15T05:30:07.587Z,47.60
2023-04-15T05:32:34.488Z,46.50
2023-04-15T05:35:01.649Z,44.80
2023-04-15T05:37:28.466Z,44.10
2023-04-15T05:39:55.152Z,44.00
2023-04-15T05:42:22.023Z,43.90
2023-04-15T05:44:48.791Z,44.60
2023-04-15T05:47:15.887Z,44.60
2023-04-15T05:49:42.588Z,44.20
2023-04-15T05:52:09.316Z,42.80
2023-04-15T05:54:36.608Z,42.60
2023-04-15T05:57:04.046Z,42.80
2023-04-15T05:59:31.017Z,42.80
2023-04-15T06:01:58.044Z,42.90
2023-04-15T06:04:24.912Z,44.70
2023-04-15T06:06:52.199Z,44.50
2023-04-15T06:09:19.018Z,45.50
2023-04-15T06:11:45.815Z,46.10
2023-04-15T06:14:12.630Z,46.80
2023-04-15T06:16:39.528Z,46.50
2023-04-15T06:19:06.336Z,44.60
2023-04-15T06:21:33.168Z,43.60
2023-04-15T06:24:02.792Z,41.20
2023-04-15T06:26:29.605Z,40.70
2023-04-15T06:28:56.424Z,40.10
2023-04-15T06:31:23.172Z,40.40
2023-04-15T06:33:50.055Z,40.30
2023-04-15T06:36:16.782Z,39.70
2023-04-15T06:38:43.471Z,39.40
2023-04-15T06:41:10.341Z,38.40
2023-04-15T06:43:37.024Z,39.30
2023-04-15T06:46:03.811Z,39.60
2023-04-15T06:48:30.624Z,38.80
2023-04-15T06:50:58.364Z,38.50
2023-04-15T06:53:27.131Z,38.30
2023-04-15T06:55:53.867Z,38.80
2023-04-15T06:58:20.620Z,39.50
2023-04-15T07:00:47.938Z,40.20
2023-04-15T07:03:15.244Z,40.40
2023-04-15T07:05:42.063Z,40.80
2023-04-15T07:08:08.993Z,41.30
2023-04-15T07:10:35.695Z,41.50
2023-04-15T07:13:02.752Z,41.20
2023-04-15T07:15:29.408Z,41.40
2023-04-15T07:17:56.409Z,41.40
2023-04-15T07:20:23.351Z,41.70
2023-04-15T07:22:50.114Z,41.40
2023-04-15T07:25:17.778Z,41.50
2023-04-15T07:27:44.655Z,42.70
2023-04-15T07:30:12.527Z,41.80
2023-04-15T07:32:39.263Z,41.80
2023-04-15T07:35:06.157Z,42.10
2023-04-15T07:37:33.720Z,42.40
2023-04-15T07:40:00.596Z,43.30
2023-04-15T07:42:27.662Z,44.10
2023-04-15T07:44:54.394Z,44.70
2023-04-15T07:47:21.456Z,45.50
2023-04-15T07:49:48.226Z,45.80
2023-04-15T07:52:14.930Z,45.60
2023-04-15T07:54:41.802Z,45.50
2023-04-15T07:57:08.760Z,46.10
2023-04-15T09:31:48.680Z,43.80
2023-04-15T09:34:15.601Z,43.80
2023-04-15T09:36:50.507Z,44.50
2023-04-15T09:39:17.932Z,44.60
2023-04-15T09:41:45.223Z,43.60
2023-04-15T09:44:25.015Z,43.50
2023-04-15T09:46:51.901Z,43.40
2023-04-15T09:49:18.660Z,42.60
2023-04-15T09:51:57.612Z,41.10
2023-04-15T09:54:35.094Z,40.10
2023-04-15T09:57:06.021Z,39.90
2023-04-15T09:59:32.767Z,39.00
2023-04-15T10:01:59.762Z,37.90
2023-04-15T10:04:28.329Z,38.30
2023-04-15T10:06:55.606Z,38.20
2023-04-15T10:09:22.367Z,37.80
2023-04-15T10:11:49.901Z,37.10
2023-04-15T10:14:17.577Z,36.80
2023-04-15T10:16:46.024Z,37.00
2023-04-15T10:19:12.845Z,36.60
2023-04-15T10:21:40.039Z,36.20
2023-04-15T10:24:07.129Z,36.00
2023-04-15T10:26:34.436Z,34.80
2023-04-15T10:29:01.371Z,33.90
2023-04-15T10:31:28.739Z,34.90
2023-04-15T10:33:55.625Z,35.90
2023-04-15T10:36:22.474Z,35.80
2023-04-15T10:38:49.239Z,36.10
2023-04-15T10:41:17.826Z,37.00
2023-04-15T10:43:47.878Z,36.90
2023-04-15T10:46:17.207Z,37.80
2023-04-15T10:48:51.339Z,37.10
2023-04-15T10:51:26.741Z,36.80
2023-04-15T10:53:56.455Z,36.90
2023-04-15T10:56:23.296Z,36.40
2023-04-15T10:58:50.053Z,35.90
2023-04-15T11:01:16.812Z,34.20
2023-04-15T11:03:43.743Z,33.40
2023-04-15T11:06:11.267Z,33.20
2023-04-15T11:09:02.653Z,32.80
2023-04-15T11:11:48.574Z,33.50
2023-04-15T11:14:16.230Z,33.30
2023-04-15T11:16:44.988Z,33.40
2023-04-15T11:19:11.925Z,33.00
2023-04-15T11:21:38.651Z,32.60
2023-04-15T11:24:05.687Z,33.00
2023-04-15T11:26:32.818Z,33.20
2023-04-15T11:29:01.543Z,33.20
2023-04-15T11:31:28.707Z,33.90
2023-04-15T11:33:56.968Z,34.30
2023-04-15T11:36:28.040Z,34.30
2023-04-15T11:38:55.242Z,35.40
2023-04-15T11:41:22.885Z,35.70
2023-04-15T11:43:50.454Z,35.80
2023-04-15T11:46:17.887Z,35.30
2023-04-15T11:48:45.769Z,35.20
2023-04-15T11:51:13.211Z,35.00
2023-04-15T11:53:41.552Z,34.30
2023-04-15T11:56:09.421Z,33.90
2023-04-15T11:58:39.971Z,33.60
2023-04-15T12:01:07.406Z,33.30
2023-04-15T12:03:42.584Z,32.80
2023-04-15T12:06:21.795Z,32.50
2023-04-15T12:08:58.478Z,33.50
2023-04-15T12:11:31.451Z,32.70
2023-04-15T12:13:59.356Z,32.30
2023-04-15T12:16:28.021Z,31.90
2023-04-15T12:18:56.380Z,32.20
2023-04-15T12:21:24.715Z,31.80
2023-04-15T12:23:52.480Z,31.90
2023-04-15T12:26:25.686Z,32.60
2023-04-15T12:28:56.598Z,32.80
2023-04-15T12:31:23.828Z,32.50
2023-04-15T12:33:51.062Z,32.50
2023-04-15T12:36:17.794Z,31.80
2023-04-15T12:38:44.486Z,31.30
2023-04-15T12:41:11.467Z,32.20
2023-04-15T12:43:38.138Z,32.50
2023-04-15T12:46:05.090Z,32.40
2023-04-15T12:48:31.886Z,32.30
2023-04-15T12:50:58.608Z,33.00
2023-04-15T12:53:26.398Z,33.50
2023-04-15T12:55:53.145Z,33.20
2023-04-15T12:58:19.926Z,33.70
2023-04-15T13:00:47.015Z,33.40
2023-04-15T13:03:14.211Z,32.70
2023-04-15T13:05:41.204Z,32.60
2023-04-15T13:08:08.007Z,32.90
2023-04-15T13:10:36.635Z,32.30
2023-04-15T13:13:03.516Z,33.10
2023-04-15T13:15:30.217Z,33.50
2023-04-15T13:17:57.103Z,33.50
2023-04-15T13:20:23.908Z,33.10
2023-04-15T13:22:52.151Z,33.00
2023-04-15T13:25:18.860Z,33.20
2023-04-15T13:27:48.180Z,36.60
2023-04-15T13:30:14.948Z,36.60
2023-04-15T13:32:41.702Z,38.40
2023-04-15T13:35:08.665Z,39.10
2023-04-15T13:37:35.425Z,39.30
2023-04-15T13:40:02.250Z,39.30
2023-04-15T13:42:29.011Z,39.60
2023-04-15T13:44:55.803Z,39.70
2023-04-15T13:47:22.596Z,39.70
2023-04-15T13:49:49.325Z,39.10
2023-04-15T13:52:16.111Z,39.20
2023-04-15T13:54:42.867Z,39.70
2023-04-15T13:57:09.857Z,39.20
2023-04-15T13:59:36.601Z,39.30
2023-04-15T14:02:03.525Z,39.40
2023-04-15T14:04:31.434Z,39.50
2023-04-15T14:06:58.565Z,39.60
2023-04-15T14:09:26.534Z,39.60
2023-04-15T14:11:54.934Z,39.60
2023-04-15T14:14:21.738Z,39.20
2023-04-15T14:16:48.602Z,39.90
2023-04-15T14:19:15.332Z,39.40
2023-04-15T14:21:42.020Z,39.40
2023-04-15T14:24:08.915Z,39.70
2023-04-15T14:26:35.779Z,39.40
2023-04-15T14:29:02.682Z,39.30
2023-04-15T14:31:29.721Z,39.30
2023-04-15T14:33:56.555Z,39.30
2023-04-15T14:36:23.221Z,39.30
2023-04-15T14:38:50.078Z,39.20
2023-04-15T14:41:17.245Z,39.00
2023-04-15T14:43:43.980Z,39.20
2023-04-15T14:46:11.035Z,39.40
2023-04-15T14:48:37.856Z,39.30
2023-04-15T14:51:04.789Z,39.50
2023-04-15T14:53:31.554Z,39.00
2023-04-15T14:55:58.450Z,39.40
2023-04-15T14:58:25.453Z,39.20
2023-04-15T15:00:52.305Z,39.00
2023-04-15T15:03:19.122Z,38.90
2023-04-15T15:05:46.892Z,39.20
2023-04-15T15:08:13.801Z,38.80
2023-04-15T15:10:48.641Z,38.80
2023-04-15T15:13:17.287Z,39.40
2023-04-15T15:15:44.144Z,38.90
2023-04-15T15:18:13.122Z,38.90
2023-04-15T15:20:39.938Z,38.30
2023-04-15T15:23:06.843Z,38.70
2023-04-15T15:25:33.586Z,38.50
2023-04-15T15:28:00.359Z,38.80
2023-04-15T15:30:27.264Z,38.80
2023-04-15T15:32:54.051Z,39.10
2023-04-15T15:35:23.005Z,39.10
2023-04-15T15:37:49.969Z,39.10
2023-04-15T15:40:16.734Z,38.80
2023-04-15T15:42:43.478Z,38.70
2023-04-15T15:45:10.580Z,38.90
2023-04-15T15:47:37.427Z,38.80
2023-04-15T15:50:06.059Z,38.90
2023-04-15T15:52:33.028Z,39.10
2023-04-15T15:54:59.911Z,39.20
2023-04-15T15:57:26.671Z,38.90
2023-04-15T16:00:04.927Z,39.00
2023-04-15T16:03:04.502Z,39.30
2023-04-15T16:05:24.021Z,39.50
2023-04-15T16:07:50.916Z,39.60
2023-04-15T16:10:17.706Z,39.70
2023-04-15T16:12:44.850Z,39.60
2023-04-15T16:15:12.300Z,39.60
2023-04-15T16:17:39.411Z,39.80
2023-04-15T16:20:07.038Z,39.70
2023-04-15T16:22:34.873Z,39.90
2023-04-15T16:25:01.958Z,39.90
2023-04-15T16:27:28.724Z,39.80
2023-04-15T16:29:55.721Z,40.10
2023-04-15T16:32:22.625Z,39.60
2023-04-15T16:34:49.505Z,39.70
2023-04-15T16:37:16.365Z,39.80
2023-04-15T16:39:43.128Z,39.90
2023-04-15T16:42:10.201Z,40.10
2023-04-15T16:44:36.925Z,40.10
2023-04-15T16:47:03.651Z,40.30
2023-04-15T16:49:30.473Z,40.10
2023-04-15T16:51:57.353Z,40.20
2023-04-15T16:54:24.192Z,40.40
2023-04-15T16:56:51.129Z,40.50
2023-04-15T16:59:17.821Z,40.50
2023-04-15T17:01:45.490Z,40.80
2023-04-15T17:04:12.281Z,40.60
2023-04-15T17:06:39.034Z,40.50
2023-04-15T17:09:05.999Z,40.70
2023-04-15T17:11:33.000Z,41.10
2023-04-15T17:13:59.843Z,40.20
2023-04-15T17:16:26.812Z,40.30
2023-04-15T17:18:53.667Z,40.10
2023-04-15T17:21:21.513Z,40.30
2023-04-15T17:23:48.259Z,40.20
2023-04-15T17:26:14.989Z,40.10
2023-04-15T17:28:41.871Z,40.20
2023-04-15T17:31:08.919Z,40.20
2023-04-15T17:34:01.812Z,40.10
2023-04-15T17:36:22.706Z,40.30
2023-04-15T17:38:49.609Z,40.30
2023-04-15T17:41:16.403Z,41.10
2023-04-15T17:43:43.157Z,40.60
2023-04-15T17:46:12.080Z,40.50
2023-04-15T17:48:38.904Z,41.00
2023-04-15T17:51:05.884Z,41.10
2023-04-15T17:53:32.785Z,41.40
2023-04-15T17:55:59.528Z,41.00
2023-04-15T17:58:27.400Z,41.60
2023-04-15T18:00:54.117Z,41.30
2023-04-15T18:03:22.094Z,41.40
2023-04-15T18:05:48.996Z,41.50
2023-04-15T18:08:15.742Z,41.70
2023-04-15T18:10:42.507Z,41.50
2023-04-15T18:13:09.392Z,41.70
2023-04-15T18:15:36.299Z,41.80
2023-04-15T18:18:03.141Z,41.60
2023-04-15T18:20:29.891Z,41.90
2023-04-15T18:22:57.095Z,42.00
2023-04-15T18:25:23.838Z,42.00
2023-04-15T18:27:50.851Z,42.10
2023-04-15T18:30:17.596Z,41.70
2023-04-15T18:32:44.312Z,41.90
2023-04-15T18:35:11.213Z,41.70
2023-04-15T18:37:37.969Z,41.60
2023-04-15T18:40:04.879Z,41.80
2023-04-15T18:42:31.611Z,41.70
2023-04-15T18:44:58.660Z,41.90
2023-04-15T18:47:27.161Z,41.70
2023-04-15T18:49:54.062Z,41.90
2023-04-15T18:52:21.095Z,42.00
2023-04-15T18:54:47.984Z,42.30
2023-04-15T18:57:14.777Z,42.00
2023-04-15T18:59:49.445Z,42.00
2023-04-15T19:02:16.344Z,42.30
2023-04-15T19:04:43.202Z,42.30
2023-04-15T19:07:10.072Z,42.50
2023-04-15T19:09:36.949Z,42.80
2023-04-15T19:12:04.032Z,42.70
2023-04-15T19:14:30.982Z,42.90
2023-04-15T19:16:57.878Z,42.70
2023-04-15T19:19:24.764Z,42.80
2023-04-15T19:21:52.686Z,42.90
2023-04-15T19:24:19.821Z,42.70
2023-04-15T19:26:52.813Z,43.40
2023-04-15T19:29:19.640Z,43.10
2023-04-15T19:31:46.423Z,43.60
2023-04-15T19:34:13.165Z,43.00
2023-04-15T19:36:39.924Z,43.20
2023-04-15T19:39:06.926Z,43.30
2023-04-15T19:41:33.823Z,43.50
2023-04-15T19:44:00.542Z,43.60
2023-04-15T19:46:27.913Z,43.60
2023-04-15T19:48:55.298Z,43.80
2023-04-15T19:51:21.991Z,43.90
2023-04-15T19:53:49.672Z,44.20
2023-04-15T19:56:16.545Z,44.40
2023-04-15T19:58:46.518Z,44.40
2023-04-15T20:01:13.294Z,44.80
2023-04-15T20:03:40.955Z,44.70
2023-04-15T20:06:07.755Z,44.90
2023-04-15T20:08:34.485Z,44.80
2023-04-15T20:11:01.661Z,45.00
2023-04-15T20:13:28.484Z,45.40
2023-04-15T20:15:55.311Z,45.50
2023-04-15T20:18:22.027Z,45.70
2023-04-15T20:20:48.727Z,45.90
2023-04-15T20:23:15.635Z,45.60
2023-04-15T20:25:42.467Z,45.80
2023-04-15T20:28:09.188Z,45.90
2023-04-15T20:30:36.222Z,46.00
2023-04-15T20:33:03.161Z,46.00
2023-04-15T20:35:31.041Z,46.10
2023-04-15T20:37:57.903Z,46.10
2023-04-15T20:40:24.694Z,46.30
2023-04-15T20:42:51.598Z,46.50
2023-04-15T20:45:18.385Z,46.70
2023-04-15T20:47:45.216Z,46.90
2023-04-15T20:50:12.268Z,46.90
2023-04-15T20:52:39.725Z,47.00
2023-04-15T20:55:07.123Z,47.20
2023-04-15T20:57:33.916Z,47.20
2023-04-15T21:00:00.660Z,47.30
2023-04-15T21:02:27.645Z,47.30
2023-04-15T21:04:54.543Z,48.10
2023-04-15T21:07:21.397Z,47.60
2023-04-15T21:09:49.306Z,47.40
2023-04-15T21:12:16.229Z,47.50
2023-04-15T21:14:42.997Z,47.70
2023-04-15T21:17:11.126Z,47.60
2023-04-15T21:19:38.594Z,48.00
2023-04-15T21:22:05.403Z,48.30
2023-04-15T21:24:32.170Z,47.90
2023-04-15T21:26:58.945Z,47.70
2023-04-15T21:29:25.965Z,47.90
2023-04-15T21:31:52.774Z,48.30
2023-04-15T21:34:19.503Z,48.30
2023-04-15T21:36:46.329Z,48.00
2023-04-15T21:39:13.088Z,48.10
2023-04-15T21:41:39.864Z,48.10
2023-04-15T21:44:06.629Z,48.90
2023-04-15T21:46:35.666Z,48.40
2023-04-15T21:49:03.064Z,48.60
2023-04-15T21:51:29.954Z,48.40
2023-04-15T21:53:56.718Z,48.70
2023-04-15T21:56:24.674Z,48.50
2023-04-15T21:58:54.262Z,48.70
2023-04-15T22:01:21.186Z,48.30
2023-04-15T22:03:48.068Z,48.70
2023-04-15T22:06:14.901Z,48.50
2023-04-15T22:08:52.518Z,48.20
2023-04-15T22:11:27.127Z,48.70
2023-04-15T22:13:54.628Z,48.20
2023-04-15T22:16:21.481Z,48.80
2023-04-15T22:18:48.395Z,48.10
2023-04-15T22:21:15.180Z,49.00
2023-04-15T22:23:41.974Z,48.30
2023-04-15T22:26:08.726Z,48.40
2023-04-15T22:28:35.614Z,49.40
2023-04-15T22:31:02.610Z,48.60
2023-04-15T22:33:29.510Z,48.40
2023-04-15T22:35:56.673Z,48.20
2023-04-15T22:38:24.247Z,48.30
2023-04-15T22:40:53.857Z,48.30
2023-04-15T22:43:20.701Z,48.60
2023-04-15T22:45:50.756Z,48.50
2023-04-15T22:48:18.046Z,48.70
2023-04-15T22:50:44.822Z,48.70
2023-04-15T22:53:11.631Z,49.00
2023-04-15T22:55:38.369Z,49.10
2023-04-15T22:58:05.117Z,48.90
2023-04-15T23:00:31.840Z,49.00
2023-04-15T23:02:58.725Z,48.70
2023-04-15T23:05:25.607Z,49.00
2023-04-15T23:07:52.362Z,49.00
2023-04-15T23:10:19.107Z,49.10
2023-04-15T23:12:46.701Z,49.20
2023-04-15T23:15:13.392Z,49.10
2023-04-15T23:17:40.229Z,49.20
2023-04-15T23:20:07.099Z,49.10
2023-04-15T23:22:37.530Z,50.10
2023-04-15T23:25:07.638Z,48.90
2023-04-15T23:27:34.634Z,49.20
2023-04-15T23:30:01.369Z,49.10
2023-04-15T23:32:28.123Z,49.10
2023-04-15T23:34:54.813Z,49.00
2023-04-15T23:37:21.582Z,48.80
2023-04-15T23:39:48.318Z,49.30
2023-04-15T23:42:15.074Z,49.00
2023-04-15T23:44:41.772Z,49.40
2023-04-15T23:47:08.536Z,49.40
2023-04-15T23:49:37.667Z,49.50
2023-04-15T23:52:04.577Z,49.70
2023-04-15T23:54:31.270Z,50.10
2023-04-15T23:56:58.035Z,50.20
2023-04-15T23:59:24.746Z,50.60
